createdAt,value
2018-10-09T00:01:36.078Z,102089.17
2018-10-09T00:04:05.193Z,102088.64
2018-10-09T00:06:34.277Z,102090.86
2018-10-09T00:09:03.386Z,102092.25
2018-10-09T00:11:32.444Z,102089.52
2018-10-09T00:14:01.501Z,102091.38
2018-10-09T00:16:30.562Z,102088.64
2018-10-09T00:18:59.763Z,102089.04
2018-10-09T00:21:29.016Z,102102.61
2018-10-09T00:23:58.186Z,102105.30
2018-10-09T00:26:27.254Z,102111.16
2018-10-09T00:28:56.470Z,102116.06
2018-10-09T00:31:25.783Z,102111.16
2018-10-09T00:33:54.838Z,102118.75
2018-10-09T00:36:23.942Z,102124.13
2018-10-09T00:38:52.990Z,102118.75
2018-10-09T00:41:22.121Z,102110.69
2018-10-09T00:43:51.233Z,102105.91
2018-10-09T00:46:20.332Z,102104.91
2018-10-09T00:48:49.585Z,102093.25
2018-10-09T00:51:18.726Z,102084.31
2018-10-09T00:53:47.761Z,102085.27
2018-10-09T00:56:16.833Z,102086.53
2018-10-09T00:58:45.901Z,102088.69
2018-10-09T01:03:50.315Z,102087.00
2018-10-09T01:06:19.361Z,102083.84
2018-10-09T01:08:48.446Z,102084.39
2018-10-09T01:11:17.503Z,102084.78
2018-10-09T01:13:46.619Z,102087.08
2018-10-09T01:16:15.754Z,102082.66
2018-10-09T01:18:44.811Z,102080.41
2018-10-09T01:21:13.891Z,102079.45
2018-10-09T01:23:42.976Z,102071.52
2018-10-09T01:26:12.386Z,102065.19
2018-10-09T01:28:41.458Z,102068.70
2018-10-09T01:31:10.801Z,102065.62
2018-10-09T01:33:39.923Z,102065.62
2018-10-09T01:36:08.978Z,102047.71
2018-10-09T01:38:38.097Z,102048.14
2018-10-09T01:41:07.181Z,102041.42
2018-10-09T01:43:36.604Z,102034.74
2018-10-09T01:46:05.829Z,102034.27
2018-10-09T01:48:34.898Z,102024.06
2018-10-09T01:51:04.022Z,102028.89
2018-10-09T01:53:33.034Z,102019.08
2018-10-09T01:56:02.170Z,102018.22
2018-10-09T01:58:31.246Z,102010.54
2018-10-09T02:01:00.373Z,102005.64
2018-10-09T02:03:29.434Z,102013.75
2018-10-09T02:06:03.367Z,102019.56
2018-10-09T02:08:32.411Z,102008.94
2018-10-09T02:11:01.561Z,102008.46
2018-10-09T02:13:30.702Z,102005.30
2018-10-09T02:15:59.798Z,102003.95
2018-10-09T02:18:28.856Z,101999.44
2018-10-09T02:20:58.043Z,102004.34
2018-10-09T02:23:27.256Z,102004.82
2018-10-09T02:25:56.339Z,102003.95
2018-10-09T02:28:25.427Z,101998.57
2018-10-09T02:30:54.558Z,102004.82
2018-10-09T02:33:23.654Z,102010.67
2018-10-09T02:35:52.886Z,102010.72
2018-10-09T02:38:22.069Z,102007.59
2018-10-09T02:40:51.130Z,102008.51
2018-10-09T02:43:20.226Z,102001.87
2018-10-09T02:45:49.320Z,102001.78
2018-10-09T02:48:18.373Z,102007.64
2018-10-09T02:50:47.517Z,102014.84
2018-10-09T02:53:16.701Z,102019.27
2018-10-09T02:55:45.753Z,102014.75
2018-10-09T02:58:14.797Z,102008.98
2018-10-09T03:00:43.897Z,102008.03
2018-10-09T03:03:12.997Z,102007.16
2018-10-09T03:05:42.081Z,101996.88
2018-10-09T03:08:11.143Z,101990.16
2018-10-09T03:10:40.270Z,101989.69
2018-10-09T03:13:09.349Z,101988.87
2018-10-09T03:15:38.469Z,101988.00
2018-10-09T03:18:07.558Z,101986.66
2018-10-09T03:20:36.685Z,101984.05
2018-10-09T03:23:06.000Z,101987.18
2018-10-09T03:25:35.053Z,101974.64
2018-10-09T03:28:04.313Z,101976.85
2018-10-09T03:30:33.457Z,101984.05
2018-10-09T03:33:02.554Z,101983.14
2018-10-09T03:35:32.393Z,101985.83
2018-10-09T03:38:01.489Z,101987.66
2018-10-09T03:40:30.774Z,101989.42
2018-10-09T03:42:59.819Z,101980.02
2018-10-09T03:45:28.961Z,101977.77
2018-10-09T03:47:58.042Z,101981.80
2018-10-09T03:50:27.098Z,101983.14
2018-10-09T03:52:56.229Z,101985.83
2018-10-09T03:55:25.370Z,101991.64
2018-10-09T03:57:54.390Z,101991.21
2018-10-09T04:00:23.522Z,101990.81
2018-10-09T04:02:52.606Z,102000.63
2018-10-09T04:05:21.658Z,101996.67
2018-10-09T04:07:50.814Z,101994.85
2018-10-09T04:10:19.917Z,101994.90
2018-10-09T04:12:49.019Z,102001.17
2018-10-09T04:15:18.253Z,102005.66
2018-10-09T04:17:47.282Z,102007.00
2018-10-09T04:20:16.398Z,102011.59
2018-10-09T04:22:45.486Z,102012.92
2018-10-09T04:25:14.590Z,102011.11
2018-10-09T04:27:43.842Z,102003.39
2018-10-09T04:30:12.998Z,102007.47
2018-10-09T04:32:41.979Z,102005.66
2018-10-09T04:35:11.167Z,102004.44
2018-10-09T04:37:40.438Z,102001.70
2018-10-09T04:40:09.633Z,102004.39
2018-10-09T04:42:38.702Z,102007.99
2018-10-09T04:45:07.758Z,102007.55
2018-10-09T04:47:36.865Z,102005.30
2018-10-09T04:50:11.346Z,102005.78
2018-10-09T04:52:40.310Z,102003.96
2018-10-09T04:55:09.446Z,102004.05
2018-10-09T04:57:38.556Z,102006.73
2018-10-09T05:00:08.375Z,102015.27
2018-10-09T05:02:37.468Z,102013.84
2018-10-09T05:05:06.509Z,102012.50
2018-10-09T05:07:35.692Z,102012.92
2018-10-09T05:10:05.057Z,102019.70
2018-10-09T05:12:34.109Z,102012.50
2018-10-09T05:15:03.170Z,102016.53
2018-10-09T05:17:32.420Z,102011.59
2018-10-09T05:20:01.683Z,102014.32
2018-10-09T05:22:30.741Z,102007.60
2018-10-09T05:24:59.807Z,102014.38
2018-10-09T05:27:28.870Z,102015.80
2018-10-09T05:29:57.958Z,102014.89
2018-10-09T05:32:27.159Z,102022.91
2018-10-09T05:34:56.255Z,102036.83
2018-10-09T05:37:25.326Z,102038.17
2018-10-09T05:39:54.349Z,102034.14
2018-10-09T05:42:23.406Z,102033.31
2018-10-09T05:44:52.534Z,102044.55
2018-10-09T05:47:21.640Z,102047.23
2018-10-09T05:49:50.726Z,102052.66
2018-10-09T05:52:19.835Z,102058.50
2018-10-09T05:54:48.908Z,102061.66
2018-10-09T05:57:17.979Z,102067.44
2018-10-09T05:59:47.029Z,102067.95
2018-10-09T06:02:16.070Z,102067.56
2018-10-09T06:04:45.215Z,102064.05
2018-10-09T06:07:14.274Z,102056.06
2018-10-09T06:09:43.388Z,102053.38
2018-10-09T06:12:12.447Z,102052.42
2018-10-09T06:14:41.516Z,102053.77
2018-10-09T06:17:10.577Z,102056.94
2018-10-09T06:19:39.650Z,102060.14
2018-10-09T06:22:08.836Z,102066.81
2018-10-09T06:24:38.067Z,102061.48
2018-10-09T06:27:07.765Z,102057.06
2018-10-09T06:29:37.461Z,102058.84
2018-10-09T06:32:07.234Z,102065.13
2018-10-09T06:34:37.039Z,102066.73
2018-10-09T06:37:06.789Z,102075.97
2018-10-09T06:39:36.764Z,102076.37
2018-10-09T06:42:06.599Z,102080.70
2018-10-09T06:44:36.286Z,102081.00
2018-10-09T06:47:06.110Z,102083.17
2018-10-09T06:49:40.980Z,102087.13
2018-10-09T06:52:10.586Z,102097.31
2018-10-09T06:54:40.400Z,102098.06
2018-10-09T06:57:10.266Z,102092.64
2018-10-09T06:59:40.088Z,102097.54
2018-10-09T07:02:09.867Z,102093.98
2018-10-09T07:04:39.714Z,102096.11
2018-10-09T07:07:09.505Z,102097.76
2018-10-09T07:09:39.293Z,102103.96
2018-10-09T07:12:09.053Z,102113.24
2018-10-09T07:14:38.958Z,102113.55
2018-10-09T07:17:08.815Z,102117.50
2018-10-09T07:19:38.763Z,102116.50
2018-10-09T07:22:08.495Z,102123.58
2018-10-09T07:24:38.266Z,102124.48
2018-10-09T07:27:08.035Z,102130.59
2018-10-09T07:29:37.853Z,102131.94
2018-10-09T07:32:07.651Z,102135.50
2018-10-09T07:34:37.399Z,102133.16
2018-10-09T07:37:07.224Z,102141.70
2018-10-09T07:39:36.862Z,102145.74
2018-10-09T07:42:06.697Z,102145.34
2018-10-09T07:44:36.384Z,102151.13
2018-10-09T07:47:05.963Z,102151.55
2018-10-09T07:49:35.731Z,102150.99
2018-10-09T07:52:05.491Z,102150.99
2018-10-09T07:54:35.194Z,102152.81
2018-10-09T07:57:05.017Z,102149.59
2018-10-09T07:59:34.553Z,102147.73
2018-10-09T08:02:04.386Z,102155.80
2018-10-09T08:04:34.033Z,102155.72
2018-10-09T08:07:03.958Z,102155.28
2018-10-09T08:12:02.055Z,102162.45
2018-10-09T08:14:31.762Z,102164.22
2018-10-09T08:17:01.615Z,102168.52
2018-10-09T08:19:31.445Z,102172.94
2018-10-09T08:22:01.274Z,102176.02
2018-10-09T08:24:31.379Z,102171.50
2018-10-09T08:27:01.170Z,102168.20
2018-10-09T08:29:30.880Z,102172.67
2018-10-09T08:32:00.695Z,102167.94
2018-10-09T08:34:30.481Z,102169.08
2018-10-09T08:37:00.431Z,102166.61
2018-10-09T08:39:30.186Z,102162.31
2018-10-09T08:41:59.900Z,102159.19
2018-10-09T08:44:29.518Z,102165.09
2018-10-09T08:46:59.277Z,102170.95
2018-10-09T08:49:29.602Z,102166.05
2018-10-09T08:51:59.482Z,102170.20
2018-10-09T08:54:29.745Z,102172.94
2018-10-09T08:56:59.496Z,102169.30
2018-10-09T08:59:29.253Z,102165.27
2018-10-09T09:01:59.077Z,102161.31
2018-10-09T09:04:28.887Z,102166.61
2018-10-09T09:06:58.691Z,102165.74
2018-10-09T09:09:28.532Z,102164.48
2018-10-09T09:11:58.475Z,102155.50
2018-10-09T09:14:28.244Z,102161.70
2018-10-09T09:16:58.147Z,102157.20
2018-10-09T09:19:27.980Z,102162.18
2018-10-09T09:21:57.591Z,102159.02
2018-10-09T09:24:27.276Z,102158.63
2018-10-09T09:26:57.130Z,102160.84
2018-10-09T09:29:26.993Z,102154.63
2018-10-09T09:31:57.441Z,102153.29
2018-10-09T09:34:27.249Z,102149.25
2018-10-09T09:36:57.085Z,102150.59
2018-10-09T09:39:26.766Z,102142.48
2018-10-09T09:41:56.551Z,102148.26
2018-10-09T09:44:26.339Z,102140.66
2018-10-09T09:46:56.139Z,102135.41
2018-10-09T09:49:25.870Z,102142.13
2018-10-09T09:51:55.743Z,102141.27
2018-10-09T09:54:25.565Z,102145.30
2018-10-09T09:56:55.299Z,102130.08
2018-10-09T09:59:25.050Z,102134.63
2018-10-09T10:01:55.301Z,102131.03
2018-10-09T10:04:25.068Z,102135.54
2018-10-09T10:06:55.958Z,102131.03
2018-10-09T10:09:25.823Z,102133.29
2018-10-09T10:11:55.467Z,102130.20
2018-10-09T10:14:25.231Z,102132.42
2018-10-09T10:16:54.962Z,102129.81
2018-10-09T10:19:24.726Z,102128.03
2018-10-09T10:21:55.243Z,102126.34
2018-10-09T10:24:25.071Z,102121.44
2018-10-09T10:26:54.825Z,102114.37
2018-10-09T10:29:24.556Z,102107.30
2018-10-09T10:31:54.376Z,102109.98
2018-10-09T10:34:24.137Z,102110.46
2018-10-09T10:36:53.904Z,102115.84
2018-10-09T10:39:23.618Z,102110.98
2018-10-09T10:41:53.518Z,102110.63
2018-10-09T10:44:23.291Z,102105.73
2018-10-09T10:46:53.097Z,102113.72
2018-10-09T10:49:22.910Z,102114.19
2018-10-09T10:51:52.794Z,102113.24
2018-10-09T10:54:22.587Z,102113.24
2018-10-09T10:56:52.399Z,102113.24
2018-10-09T10:59:22.212Z,102113.20
2018-10-09T11:01:51.952Z,102116.28
2018-10-09T11:04:21.884Z,102107.69
2018-10-09T11:06:51.665Z,102102.39
2018-10-09T11:09:21.430Z,102108.21
2018-10-09T11:11:51.127Z,102104.30
2018-10-09T11:14:20.841Z,102103.48
2018-10-09T11:16:50.590Z,102108.34
2018-10-09T11:19:20.311Z,102105.78
2018-10-09T11:21:50.186Z,102099.53
2018-10-09T11:24:20.045Z,102100.92
2018-10-09T11:26:49.803Z,102096.41
2018-10-09T11:29:19.415Z,102099.53
2018-10-09T11:31:49.178Z,102090.16
2018-10-09T11:34:18.926Z,102087.48
2018-10-09T11:36:48.716Z,102088.82
2018-10-09T11:39:18.404Z,102091.94
2018-10-09T11:41:48.126Z,102089.30
2018-10-09T11:44:17.930Z,102087.48
2018-10-09T11:46:47.740Z,102091.52
2018-10-09T11:49:17.438Z,102087.91
2018-10-09T11:51:47.224Z,102084.27
2018-10-09T11:54:16.965Z,102080.23
2018-10-09T11:56:46.783Z,102084.14
2018-10-09T11:59:16.560Z,102072.91
2018-10-09T12:01:46.453Z,102071.87
2018-10-09T12:04:16.358Z,102071.34
2018-10-09T12:06:46.082Z,102067.30
2018-10-09T12:09:15.844Z,102067.70
2018-10-09T12:11:45.647Z,102062.27
2018-10-09T12:14:15.460Z,102069.82
2018-10-09T12:16:45.642Z,102069.22
2018-10-09T12:19:15.397Z,102077.11
2018-10-09T12:21:45.167Z,102067.98
2018-10-09T12:24:15.028Z,102071.07
2018-10-09T12:26:44.841Z,102063.05
2018-10-09T12:29:14.501Z,102060.92
2018-10-09T12:31:44.258Z,102063.87
2018-10-09T12:34:14.028Z,102057.73
2018-10-09T12:36:43.810Z,102062.19
2018-10-09T12:39:14.267Z,102057.47
2018-10-09T12:41:44.026Z,102055.86
2018-10-09T12:44:13.831Z,102056.15
2018-10-09T12:46:43.751Z,102052.31
2018-10-09T12:49:13.420Z,102055.20
2018-10-09T12:51:43.242Z,102061.36
2018-10-09T12:54:12.980Z,102055.30
2018-10-09T12:56:43.051Z,102057.33
2018-10-09T12:59:12.723Z,102053.23
2018-10-09T13:01:42.834Z,102057.13
2018-10-09T13:04:12.537Z,102055.17
2018-10-09T13:06:42.263Z,102051.89
2018-10-09T13:09:13.418Z,102048.30
2018-10-09T13:11:43.322Z,102053.48
2018-10-09T13:14:13.076Z,102046.16
2018-10-09T13:16:42.747Z,102043.58
2018-10-09T13:19:12.499Z,102043.81
2018-10-09T13:21:42.622Z,102043.13
2018-10-09T13:24:12.325Z,102042.45
2018-10-09T13:26:42.306Z,102045.48
2018-10-09T13:29:12.095Z,102047.17
2018-10-09T13:31:41.822Z,102037.54
2018-10-09T13:34:11.945Z,102042.36
2018-10-09T13:36:41.802Z,102041.34
2018-10-09T13:39:11.815Z,102031.36
2018-10-09T13:41:41.479Z,102034.39
2018-10-09T13:44:11.508Z,102030.63
2018-10-09T13:46:41.384Z,102037.75
2018-10-09T13:49:11.830Z,102023.73
2018-10-09T13:51:41.612Z,102021.43
2018-10-09T13:54:11.562Z,102030.72
2018-10-09T13:56:41.348Z,102023.53
2018-10-09T13:59:10.979Z,102026.34
2018-10-09T14:01:40.764Z,102023.11
2018-10-09T14:04:10.496Z,102024.55
2018-10-09T14:06:40.333Z,102027.78
2018-10-09T14:09:11.276Z,102026.01
2018-10-09T14:11:41.193Z,102009.13
2018-10-09T14:14:10.879Z,102013.31
2018-10-09T14:16:40.670Z,102015.25
2018-10-09T14:19:10.297Z,102011.69
2018-10-09T14:21:40.066Z,102007.91
2018-10-09T14:24:09.759Z,102011.47
2018-10-09T14:26:39.848Z,102005.99
2018-10-09T14:29:09.606Z,102010.60
2018-10-09T14:31:39.266Z,102005.66
2018-10-09T14:34:09.303Z,102009.79
2018-10-09T14:36:38.982Z,102011.95
2018-10-09T14:39:09.231Z,102009.70
2018-10-09T14:41:38.977Z,102012.81
2018-10-09T14:44:08.674Z,102012.48
2018-10-09T14:46:38.562Z,102006.56
2018-10-09T14:49:07.628Z,102006.14
2018-10-09T14:51:42.140Z,102002.05
2018-10-09T14:54:16.744Z,102001.23
2018-10-09T14:56:45.817Z,102002.58
2018-10-09T14:59:15.108Z,102005.60
2018-10-09T15:01:44.157Z,101995.16
2018-10-09T15:04:13.850Z,102007.09
2018-10-09T15:06:42.975Z,101999.55
2018-10-09T15:09:13.439Z,101991.14
2018-10-09T15:11:43.171Z,101995.80
2018-10-09T15:14:12.800Z,102000.29
2018-10-09T15:16:41.846Z,102002.11
2018-10-09T15:19:11.069Z,102000.97
2018-10-09T15:21:40.172Z,101999.82
2018-10-09T15:24:09.225Z,102008.47
2018-10-09T15:26:38.339Z,102005.02
2018-10-09T15:29:12.843Z,102004.77
2018-10-09T15:31:42.139Z,102007.46
2018-10-09T15:34:11.159Z,102001.80
2018-10-09T15:36:40.271Z,102000.11
2018-10-09T15:39:11.113Z,101999.30
2018-10-09T15:41:40.334Z,101996.55
2018-10-09T15:44:09.561Z,101998.00
2018-10-09T15:46:38.623Z,101992.28
2018-10-09T15:49:07.976Z,101993.23
2018-10-09T15:51:37.119Z,101993.72
2018-10-09T15:54:06.316Z,101993.30
2018-10-09T15:56:35.415Z,101993.86
2018-10-09T15:59:04.904Z,101992.09
2018-10-09T16:01:34.022Z,101986.31
2018-10-09T16:04:03.231Z,101992.95
2018-10-09T16:06:32.488Z,101990.41
2018-10-09T16:09:01.582Z,101987.72
2018-10-09T16:11:30.698Z,101988.72
2018-10-09T16:13:59.815Z,101986.98
2018-10-09T16:16:28.904Z,101983.05
2018-10-09T16:18:58.106Z,101989.73
2018-10-09T16:21:27.272Z,101993.38
2018-10-09T16:23:56.401Z,101993.04
2018-10-09T16:26:25.491Z,101996.52
2018-10-09T16:28:54.710Z,101994.83
2018-10-09T16:31:23.812Z,101995.73
2018-10-09T16:33:52.850Z,101996.17
2018-10-09T16:36:22.193Z,101997.52
2018-10-09T16:38:51.396Z,101993.57
2018-10-09T16:41:20.489Z,101993.14
2018-10-09T16:43:49.608Z,101993.70
2018-10-09T16:46:18.937Z,101984.34
2018-10-09T16:48:48.067Z,101989.77
2018-10-09T16:51:22.629Z,101993.81
2018-10-09T16:53:51.803Z,101988.52
2018-10-09T16:56:20.916Z,101996.11
2018-10-09T16:58:50.107Z,101989.91
2018-10-09T17:01:19.222Z,101997.98
2018-10-09T17:03:48.287Z,101999.33
2018-10-09T17:06:17.388Z,102000.28
2018-10-09T17:08:46.475Z,101996.69
2018-10-09T17:11:15.687Z,101998.48
2018-10-09T17:13:44.948Z,102001.17
2018-10-09T17:16:14.049Z,102002.13
2018-10-09T17:18:43.194Z,102006.16
2018-10-09T17:21:12.373Z,102005.69
2018-10-09T17:23:41.448Z,102004.23
2018-10-09T17:26:10.538Z,102009.17
2018-10-09T17:28:39.612Z,102005.14
2018-10-09T17:31:08.679Z,102008.70
2018-10-09T17:33:37.938Z,102014.47
2018-10-09T17:36:07.168Z,102011.78
2018-10-09T17:38:36.245Z,102007.27
2018-10-09T17:41:05.345Z,102012.13
2018-10-09T17:43:34.402Z,102015.29
2018-10-09T17:46:03.558Z,102015.23
2018-10-09T17:48:32.653Z,102016.98
2018-10-09T17:51:01.983Z,102017.45
2018-10-09T17:53:31.096Z,102016.98
2018-10-09T17:56:00.335Z,102015.63
2018-10-09T17:58:29.507Z,102010.20
2018-10-09T18:00:58.609Z,102019.14
2018-10-09T18:03:27.691Z,102013.14
2018-10-09T18:05:56.979Z,102020.69
2018-10-09T18:08:26.237Z,102022.84
2018-10-09T18:10:55.411Z,102020.97
2018-10-09T18:13:24.570Z,102015.16
2018-10-09T18:15:53.714Z,102016.17
2018-10-09T18:18:22.831Z,102016.17
2018-10-09T18:20:51.932Z,102020.20
2018-10-09T18:23:20.990Z,102017.59
2018-10-09T18:25:50.084Z,102023.85
2018-10-09T18:28:19.200Z,102017.52
2018-10-09T18:30:48.312Z,102026.06
2018-10-09T18:33:17.475Z,102022.50
2018-10-09T18:35:46.623Z,102021.08
2018-10-09T18:38:15.783Z,102021.50
2018-10-09T18:40:45.037Z,102027.80
2018-10-09T18:43:14.347Z,102022.42
2018-10-09T18:45:43.447Z,102026.94
2018-10-09T18:48:12.555Z,102025.11
2018-10-09T18:50:41.614Z,102026.45
2018-10-09T18:53:10.744Z,102018.33
2018-10-09T18:55:40.058Z,102016.51
2018-10-09T18:58:09.204Z,102014.34
2018-10-09T19:00:38.247Z,102013.09
2018-10-09T19:03:07.345Z,102019.53
2018-10-09T19:05:36.533Z,102016.83
2018-10-09T19:08:05.598Z,102018.27
2018-10-09T19:10:34.661Z,102018.31
2018-10-09T19:13:03.930Z,102016.02
2018-10-09T19:15:33.055Z,102018.66
2018-10-09T19:18:02.152Z,102025.44
2018-10-09T19:20:31.643Z,102021.06
2018-10-09T19:23:00.714Z,102022.49
2018-10-09T19:25:29.781Z,102026.23
2018-10-09T19:27:58.948Z,102020.53
2018-10-09T19:30:28.108Z,102024.66
2018-10-09T19:32:57.232Z,102025.66
2018-10-09T19:35:26.375Z,102023.45
2018-10-09T19:37:55.437Z,102019.98
2018-10-09T19:40:24.508Z,102022.68
2018-10-09T19:42:53.605Z,102018.64
2018-10-09T19:45:22.684Z,102022.81
2018-10-09T19:47:51.758Z,102025.50
2018-10-09T19:50:20.808Z,102025.11
2018-10-09T19:52:49.869Z,102023.29
2018-10-09T19:55:18.931Z,102035.88
2018-10-09T19:57:48.164Z,102024.20
2018-10-09T20:00:17.346Z,102029.59
2018-10-09T20:02:46.446Z,102026.98
2018-10-09T20:05:15.552Z,102028.33
2018-10-09T20:07:44.765Z,102028.33
2018-10-09T20:10:14.026Z,102029.67
2018-10-09T20:12:43.184Z,102025.69
2018-10-09T20:15:12.260Z,102025.21
2018-10-09T20:17:41.387Z,102023.47
2018-10-09T20:20:10.481Z,102022.60
2018-10-09T20:22:40.641Z,102012.33
2018-10-09T20:25:09.731Z,102021.27
2018-10-09T20:27:38.872Z,102019.91
2018-10-09T20:30:08.225Z,102012.33
2018-10-09T20:32:37.291Z,102019.05
2018-10-09T20:35:06.375Z,102009.25
2018-10-09T20:37:35.489Z,102012.38
2018-10-09T20:40:04.577Z,102017.33
2018-10-09T20:42:33.608Z,102017.41
2018-10-09T20:45:02.724Z,102021.92
2018-10-09T20:47:37.212Z,102020.15
2018-10-09T20:50:06.372Z,102021.49
2018-10-09T20:52:35.732Z,102019.80
2018-10-09T20:55:04.893Z,102021.58
2018-10-09T20:57:33.944Z,102018.94
2018-10-09T21:00:03.305Z,102018.59
2018-10-09T21:02:32.607Z,102020.41
2018-10-09T21:05:01.767Z,102021.80
2018-10-09T21:07:30.880Z,102020.89
2018-10-09T21:10:00.163Z,102022.75
2018-10-09T21:12:29.590Z,102018.72
2018-10-09T21:14:58.872Z,102021.89
2018-10-09T21:17:28.223Z,102024.58
2018-10-09T21:19:59.457Z,102021.07
2018-10-09T21:22:28.630Z,102030.00
2018-10-09T21:24:57.693Z,102022.46
2018-10-09T21:27:26.812Z,102025.63
2018-10-09T21:29:55.939Z,102019.38
2018-10-09T21:32:25.161Z,102019.91
2018-10-09T21:34:54.241Z,102021.72
2018-10-09T21:37:23.625Z,102019.08
2018-10-09T21:39:52.674Z,102014.10
2018-10-09T21:42:21.706Z,102014.10
2018-10-09T21:44:50.774Z,102014.58
2018-10-09T21:47:19.871Z,102014.18
2018-10-09T21:49:49.004Z,102011.49
2018-10-09T21:52:18.043Z,102012.36
2018-10-09T21:54:47.091Z,102011.06
2018-10-09T21:57:16.143Z,102015.10
2018-10-09T21:59:45.195Z,102015.53
2018-10-09T22:02:14.235Z,102006.59
2018-10-09T22:04:43.327Z,102009.72
2018-10-09T22:07:17.219Z,102010.15
2018-10-09T22:09:46.717Z,102007.46
2018-10-09T22:12:15.799Z,102002.95
2018-10-09T22:14:44.851Z,102005.64
2018-10-09T22:17:13.974Z,102009.28
2018-10-09T22:19:43.095Z,102007.51
2018-10-09T22:22:12.127Z,102000.78
2018-10-09T22:24:41.199Z,102002.21
2018-10-09T22:27:10.328Z,101998.63
2018-10-09T22:29:39.338Z,101999.09
2018-10-09T22:32:08.504Z,101999.63
2018-10-09T22:34:37.550Z,102005.00
2018-10-09T22:37:06.895Z,102003.21
2018-10-09T22:39:35.980Z,101997.02
2018-10-09T22:42:05.104Z,102000.57
2018-10-09T22:44:34.301Z,101996.14
2018-10-09T22:47:03.461Z,101991.21
2018-10-09T22:49:32.763Z,101990.81
2018-10-09T22:52:01.803Z,101981.45
2018-10-09T22:54:30.888Z,101990.87
2018-10-09T22:56:59.920Z,101989.52
2018-10-09T22:59:28.968Z,101987.73
2018-10-09T23:01:58.148Z,101985.39
2018-10-09T23:04:27.245Z,101983.14
2018-10-09T23:06:56.296Z,101997.49
2018-10-09T23:09:25.366Z,101998.36
2018-10-09T23:11:54.480Z,101993.38
2018-10-09T23:14:23.596Z,101994.20
2018-10-09T23:16:52.868Z,101994.24
2018-10-09T23:19:21.948Z,101996.41
2018-10-09T23:21:51.037Z,101995.59
2018-10-09T23:24:20.138Z,101994.20
2018-10-09T23:26:49.531Z,101994.20
2018-10-09T23:29:18.638Z,101996.02
2018-10-09T23:31:47.731Z,101991.11
2018-10-09T23:34:16.822Z,101994.20
2018-10-09T23:36:45.916Z,101992.85
2018-10-09T23:39:15.230Z,101991.98
2018-10-09T23:41:44.330Z,101992.85
2018-10-09T23:44:13.414Z,101991.11
2018-10-09T23:46:42.523Z,101990.21
2018-10-09T23:49:11.675Z,101986.18
2018-10-09T23:51:40.839Z,101983.97
2018-10-09T23:54:09.932Z,101988.42
2018-10-09T23:56:38.950Z,101974.55
2018-10-09T23:59:08.078Z,101979.93
